JBU15D KLAX-KSAN
Flight info
| Callsign | JBU15D |
|---|---|
| Flight time | 0h 55m |
| Altitude | 13000 |
| Route | LAXX1 MZB |
| Aircraft | A320/M-SDE3FGHIRWY/LB1 |
Departure
| Time | 2026-04-26 05:51 |
|---|---|
| Airport | Los Angeles International Airport (KLAX) |
Arrival
| Time | 2026-04-26 06:47 |
|---|---|
| Airport | San Diego International Airport (KSAN) |
| Time | Latitude | Longitude | Altitude | Speed | Heading |
|---|---|---|---|---|---|
| 2026-04-26 05:28 | 33.93978 | -118.40476 | 126 ft | 0 kts | 31° |
| 2026-04-26 05:40 | 33.93977 | -118.40477 | 121 ft | 2 kts | 31° |
| 2026-04-26 05:40 | 33.93955 | -118.40493 | 124 ft | 4 kts | 36° |
| 2026-04-26 05:40 | 33.93935 | -118.40514 | 122 ft | 4 kts | 58° |
| 2026-04-26 05:41 | 33.93931 | -118.40536 | 123 ft | 2 kts | 128° |
| 2026-04-26 05:41 | 33.93932 | -118.40537 | 122 ft | 0 kts | 129° |
| 2026-04-26 05:44 | 33.93931 | -118.40536 | 122 ft | 1 kts | 129° |
| 2026-04-26 05:45 | 33.93909 | -118.40525 | 121 ft | 4 kts | 175° |
| 2026-04-26 05:45 | 33.93880 | -118.40531 | 125 ft | 5 kts | 192° |
| 2026-04-26 05:45 | 33.93850 | -118.40530 | 124 ft | 4 kts | 164° |
| 2026-04-26 05:45 | 33.93826 | -118.40510 | 123 ft | 4 kts | 128° |
| 2026-04-26 05:46 | 33.93828 | -118.40462 | 123 ft | 8 kts | 78° |
| 2026-04-26 05:46 | 33.93839 | -118.40396 | 124 ft | 8 kts | 81° |
| 2026-04-26 05:46 | 33.93845 | -118.40326 | 126 ft | 9 kts | 84° |
| 2026-04-26 05:46 | 33.93852 | -118.40252 | 126 ft | 9 kts | 83° |
| 2026-04-26 05:47 | 33.93863 | -118.40157 | 126 ft | 16 kts | 83° |
| 2026-04-26 05:47 | 33.93879 | -118.39999 | 126 ft | 20 kts | 80° |
| 2026-04-26 05:47 | 33.93897 | -118.39810 | 122 ft | 23 kts | 84° |
| 2026-04-26 05:47 | 33.93915 | -118.39651 | 126 ft | 18 kts | 83° |
| 2026-04-26 05:48 | 33.93929 | -118.39506 | 126 ft | 17 kts | 84° |
| 2026-04-26 05:48 | 33.93944 | -118.39362 | 126 ft | 17 kts | 82° |
| 2026-04-26 05:48 | 33.93959 | -118.39221 | 126 ft | 17 kts | 84° |
| 2026-04-26 05:48 | 33.93972 | -118.39081 | 126 ft | 17 kts | 83° |
| 2026-04-26 05:49 | 33.93987 | -118.38941 | 126 ft | 19 kts | 82° |
| 2026-04-26 05:49 | 33.94024 | -118.38572 | 126 ft | 22 kts | 83° |
| 2026-04-26 05:49 | 33.94042 | -118.38391 | 121 ft | 21 kts | 83° |
| 2026-04-26 05:50 | 33.94060 | -118.38225 | 126 ft | 20 kts | 82° |
| 2026-04-26 05:50 | 33.94076 | -118.38062 | 126 ft | 19 kts | 84° |
| 2026-04-26 05:50 | 33.94005 | -118.37995 | 125 ft | 17 kts | 201° |
| 2026-04-26 05:50 | 33.93979 | -118.38078 | 126 ft | 3 kts | 263° |
| 2026-04-26 05:51 | 33.93944 | -118.38411 | 126 ft | 94 kts | 263° |
| 2026-04-26 05:51 | 33.93823 | -118.39578 | 226 ft | 174 kts | 262° |
| 2026-04-26 05:51 | 33.93646 | -118.41113 | 1018 ft | 199 kts | 263° |
| 2026-04-26 05:51 | 33.93484 | -118.42916 | 1908 ft | 231 kts | 263° |
| 2026-04-26 05:52 | 33.92982 | -118.44817 | 3076 ft | 247 kts | 238° |
| 2026-04-26 05:52 | 33.91914 | -118.46481 | 4232 ft | 255 kts | 233° |
| 2026-04-26 05:52 | 33.90814 | -118.48156 | 4710 ft | 254 kts | 234° |
| 2026-04-26 05:52 | 33.89728 | -118.49822 | 4936 ft | 253 kts | 234° |
| 2026-04-26 05:53 | 33.88649 | -118.51494 | 4996 ft | 253 kts | 234° |
| 2026-04-26 05:53 | 33.87575 | -118.53167 | 5002 ft | 252 kts | 234° |
| 2026-04-26 05:53 | 33.86501 | -118.54841 | 5005 ft | 252 kts | 234° |
| 2026-04-26 05:53 | 33.85428 | -118.56509 | 5005 ft | 252 kts | 234° |
| 2026-04-26 05:54 | 33.84361 | -118.58165 | 5002 ft | 252 kts | 234° |
| 2026-04-26 05:54 | 33.83285 | -118.59835 | 5066 ft | 256 kts | 234° |
| 2026-04-26 05:54 | 33.82163 | -118.61577 | 6061 ft | 264 kts | 234° |
| 2026-04-26 05:54 | 33.81059 | -118.63292 | 7611 ft | 256 kts | 233° |
| 2026-04-26 05:55 | 33.79977 | -118.64969 | 8121 ft | 259 kts | 233° |
| 2026-04-26 05:55 | 33.78852 | -118.66712 | 9168 ft | 264 kts | 232° |
| 2026-04-26 05:55 | 33.77722 | -118.68461 | 10387 ft | 269 kts | 233° |
| 2026-04-26 05:55 | 33.76524 | -118.70323 | 10979 ft | 294 kts | 233° |
| 2026-04-26 05:56 | 33.75220 | -118.72351 | 11508 ft | 316 kts | 233° |
| 2026-04-26 05:56 | 33.73848 | -118.74477 | 12367 ft | 325 kts | 233° |
| 2026-04-26 05:56 | 33.72447 | -118.76642 | 12812 ft | 329 kts | 233° |
| 2026-04-26 05:56 | 33.71039 | -118.78815 | 12952 ft | 334 kts | 233° |
| 2026-04-26 05:57 | 33.69550 | -118.81116 | 12985 ft | 360 kts | 233° |
| 2026-04-26 05:57 | 33.67995 | -118.83523 | 12970 ft | 366 kts | 233° |
| 2026-04-26 05:57 | 33.66431 | -118.85939 | 12975 ft | 368 kts | 233° |
| 2026-04-26 05:57 | 33.64920 | -118.88267 | 12976 ft | 345 kts | 233° |
| 2026-04-26 05:58 | 33.63422 | -118.90567 | 12966 ft | 360 kts | 233° |
| 2026-04-26 05:58 | 33.61858 | -118.92940 | 12974 ft | 358 kts | 231° |
| 2026-04-26 05:58 | 33.59974 | -118.94739 | 12970 ft | 342 kts | 210° |
| 2026-04-26 05:58 | 33.57697 | -118.95532 | 12988 ft | 346 kts | 189° |
| 2026-04-26 05:59 | 33.55285 | -118.95238 | 12975 ft | 356 kts | 168° |
| 2026-04-26 05:59 | 33.53063 | -118.93869 | 12980 ft | 367 kts | 147° |
| 2026-04-26 05:59 | 33.51334 | -118.91575 | 12971 ft | 377 kts | 125° |
| 2026-04-26 05:59 | 33.50350 | -118.88638 | 12981 ft | 385 kts | 105° |
| 2026-04-26 06:00 | 33.49880 | -118.85474 | 12978 ft | 386 kts | 101° |
| 2026-04-26 06:00 | 33.49455 | -118.82297 | 12986 ft | 387 kts | 101° |
| 2026-04-26 06:00 | 33.49034 | -118.79111 | 12992 ft | 387 kts | 101° |
| 2026-04-26 06:00 | 33.48385 | -118.75894 | 12997 ft | 411 kts | 112° |
| 2026-04-26 06:01 | 33.47399 | -118.72631 | 12987 ft | 420 kts | 113° |
| 2026-04-26 06:01 | 33.46396 | -118.69336 | 12992 ft | 422 kts | 113° |
| 2026-04-26 06:01 | 33.45386 | -118.66037 | 12996 ft | 423 kts | 113° |
| 2026-04-26 06:01 | 33.44368 | -118.62720 | 12991 ft | 423 kts | 113° |
| 2026-04-26 06:02 | 33.43351 | -118.59418 | 12996 ft | 423 kts | 113° |
| 2026-04-26 06:02 | 33.42348 | -118.56161 | 12996 ft | 422 kts | 113° |
| 2026-04-26 06:02 | 33.41331 | -118.52858 | 12998 ft | 422 kts | 113° |
| 2026-04-26 06:02 | 33.40316 | -118.49557 | 13000 ft | 422 kts | 113° |
| 2026-04-26 06:03 | 33.39301 | -118.46258 | 12998 ft | 422 kts | 113° |
| 2026-04-26 06:03 | 33.38281 | -118.42950 | 12996 ft | 422 kts | 113° |
| 2026-04-26 06:03 | 33.37266 | -118.39661 | 12985 ft | 422 kts | 113° |
| 2026-04-26 06:03 | 33.36251 | -118.36369 | 12977 ft | 422 kts | 112° |
| 2026-04-26 06:04 | 33.35236 | -118.33083 | 13000 ft | 421 kts | 113° |
| 2026-04-26 06:04 | 33.34220 | -118.29796 | 13001 ft | 420 kts | 112° |
| 2026-04-26 06:04 | 33.33206 | -118.26516 | 12998 ft | 420 kts | 113° |
| 2026-04-26 06:04 | 33.32192 | -118.23240 | 12968 ft | 421 kts | 113° |
| 2026-04-26 06:05 | 33.31173 | -118.19951 | 12963 ft | 422 kts | 113° |
| 2026-04-26 06:05 | 33.30151 | -118.16662 | 12964 ft | 423 kts | 113° |
| 2026-04-26 06:05 | 33.29127 | -118.13362 | 12968 ft | 423 kts | 113° |
| 2026-04-26 06:05 | 33.28101 | -118.10066 | 12963 ft | 424 kts | 113° |
| 2026-04-26 06:06 | 33.27073 | -118.06766 | 12963 ft | 424 kts | 113° |
| 2026-04-26 06:06 | 33.26053 | -118.03501 | 12964 ft | 424 kts | 113° |
| 2026-04-26 06:06 | 33.25020 | -118.00204 | 12970 ft | 424 kts | 113° |
| 2026-04-26 06:06 | 33.23982 | -117.96896 | 12975 ft | 424 kts | 113° |
| 2026-04-26 06:07 | 33.22948 | -117.93597 | 12981 ft | 424 kts | 113° |
| 2026-04-26 06:07 | 33.21914 | -117.90292 | 12987 ft | 424 kts | 113° |
| 2026-04-26 06:07 | 33.20878 | -117.86993 | 12988 ft | 424 kts | 113° |
| 2026-04-26 06:07 | 33.19841 | -117.83697 | 12980 ft | 424 kts | 113° |
| 2026-04-26 06:08 | 33.18802 | -117.80394 | 12971 ft | 425 kts | 113° |
| 2026-04-26 06:08 | 33.17760 | -117.77091 | 12968 ft | 420 kts | 113° |
| 2026-04-26 06:08 | 33.16768 | -117.73933 | 12989 ft | 397 kts | 113° |
| 2026-04-26 06:08 | 33.15826 | -117.70936 | 12989 ft | 380 kts | 114° |
| 2026-04-26 06:09 | 33.14926 | -117.68065 | 12989 ft | 359 kts | 114° |
| 2026-04-26 06:09 | 33.14073 | -117.65351 | 12991 ft | 341 kts | 114° |
| 2026-04-26 06:09 | 33.13244 | -117.62731 | 12993 ft | 335 kts | 114° |
| 2026-04-26 06:09 | 33.12417 | -117.60133 | 12993 ft | 334 kts | 114° |
| 2026-04-26 06:10 | 33.11592 | -117.57542 | 12997 ft | 333 kts | 114° |
| 2026-04-26 06:10 | 33.10771 | -117.54959 | 12996 ft | 333 kts | 114° |
| 2026-04-26 06:10 | 33.09949 | -117.52376 | 12997 ft | 333 kts | 114° |
| 2026-04-26 06:10 | 33.09125 | -117.49792 | 12996 ft | 333 kts | 114° |
| 2026-04-26 06:11 | 33.08299 | -117.47211 | 13000 ft | 333 kts | 115° |
| 2026-04-26 06:11 | 33.07478 | -117.44640 | 12997 ft | 331 kts | 115° |
| 2026-04-26 06:11 | 33.06659 | -117.42072 | 12997 ft | 331 kts | 115° |
| 2026-04-26 06:11 | 33.05840 | -117.39504 | 12986 ft | 331 kts | 115° |
| 2026-04-26 06:12 | 33.05019 | -117.36927 | 12997 ft | 333 kts | 115° |
| 2026-04-26 06:12 | 33.04021 | -117.34503 | 12878 ft | 328 kts | 130° |
| 2026-04-26 06:12 | 33.02341 | -117.32673 | 12002 ft | 325 kts | 157° |
| 2026-04-26 06:12 | 33.00262 | -117.31711 | 11230 ft | 326 kts | 166° |
| 2026-04-26 06:13 | 32.98131 | -117.30846 | 10754 ft | 322 kts | 166° |
| 2026-04-26 06:13 | 32.96015 | -117.29978 | 10207 ft | 321 kts | 165° |
| 2026-04-26 06:13 | 32.93909 | -117.29109 | 9633 ft | 320 kts | 165° |
| 2026-04-26 06:13 | 32.91816 | -117.28238 | 9073 ft | 317 kts | 165° |
| 2026-04-26 06:14 | 32.89750 | -117.27369 | 8541 ft | 313 kts | 164° |
| 2026-04-26 06:14 | 32.87708 | -117.26508 | 8012 ft | 310 kts | 164° |
| 2026-04-26 06:14 | 32.85686 | -117.25657 | 7486 ft | 306 kts | 164° |
| 2026-04-26 06:14 | 32.83690 | -117.24822 | 6974 ft | 302 kts | 164° |
| 2026-04-26 06:15 | 32.81724 | -117.23961 | 6460 ft | 301 kts | 158° |
| 2026-04-26 06:15 | 32.80080 | -117.22450 | 6063 ft | 299 kts | 130° |
| 2026-04-26 06:15 | 32.79201 | -117.20296 | 6000 ft | 284 kts | 105° |
| 2026-04-26 06:15 | 32.78826 | -117.18078 | 5993 ft | 263 kts | 101° |
| 2026-04-26 06:16 | 32.78530 | -117.16001 | 5999 ft | 249 kts | 101° |
| 2026-04-26 06:16 | 32.78265 | -117.13979 | 5999 ft | 247 kts | 101° |
| 2026-04-26 06:16 | 32.78002 | -117.11961 | 5999 ft | 247 kts | 101° |
| 2026-04-26 06:16 | 32.77742 | -117.09946 | 5996 ft | 246 kts | 101° |
| 2026-04-26 06:17 | 32.77485 | -117.07936 | 5996 ft | 246 kts | 101° |
| 2026-04-26 06:17 | 32.77231 | -117.05940 | 5748 ft | 242 kts | 101° |
| 2026-04-26 06:17 | 32.76980 | -117.04000 | 5609 ft | 233 kts | 101° |
| 2026-04-26 06:17 | 32.76740 | -117.02137 | 5477 ft | 225 kts | 101° |
| 2026-04-26 06:18 | 32.76506 | -117.00328 | 5351 ft | 218 kts | 101° |
| 2026-04-26 06:18 | 32.76279 | -116.98576 | 5226 ft | 212 kts | 101° |
| 2026-04-26 06:18 | 32.76057 | -116.96853 | 5035 ft | 210 kts | 103° |
| 2026-04-26 06:18 | 32.75468 | -116.95327 | 4793 ft | 201 kts | 139° |
| 2026-04-26 06:19 | 32.74299 | -116.94582 | 4549 ft | 188 kts | 178° |
| 2026-04-26 06:19 | 32.73022 | -116.94570 | 4305 ft | 182 kts | 188° |
| 2026-04-26 06:19 | 32.71760 | -116.94709 | 3990 ft | 180 kts | 191° |
| 2026-04-26 06:19 | 32.70510 | -116.94870 | 3981 ft | 183 kts | 191° |
| 2026-04-26 06:20 | 32.69332 | -116.95327 | 3980 ft | 177 kts | 221° |
| 2026-04-26 06:20 | 32.68723 | -116.96517 | 3983 ft | 175 kts | 261° |
| 2026-04-26 06:20 | 32.68976 | -116.97934 | 4002 ft | 180 kts | 300° |
| 2026-04-26 06:20 | 32.69997 | -116.98805 | 3993 ft | 190 kts | 340° |
| 2026-04-26 06:21 | 32.71317 | -116.98780 | 3999 ft | 197 kts | 6° |
| 2026-04-26 06:21 | 32.72673 | -116.98407 | 3991 ft | 197 kts | 10° |
| 2026-04-26 06:21 | 32.73981 | -116.98006 | 4159 ft | 197 kts | 11° |
| 2026-04-26 06:21 | 32.75222 | -116.97291 | 4406 ft | 205 kts | 40° |
| 2026-04-26 06:22 | 32.75905 | -116.95813 | 4670 ft | 209 kts | 80° |
| 2026-04-26 06:22 | 32.75888 | -116.94086 | 4918 ft | 210 kts | 98° |
| 2026-04-26 06:22 | 32.75701 | -116.92351 | 4895 ft | 212 kts | 100° |
| 2026-04-26 06:22 | 32.75494 | -116.90633 | 4632 ft | 209 kts | 101° |
| 2026-04-26 06:23 | 32.75053 | -116.89026 | 4376 ft | 201 kts | 129° |
| 2026-04-26 06:23 | 32.73977 | -116.88091 | 4119 ft | 189 kts | 169° |
| 2026-04-26 06:23 | 32.72701 | -116.88014 | 4010 ft | 183 kts | 187° |
| 2026-04-26 06:23 | 32.71432 | -116.88149 | 3975 ft | 183 kts | 191° |
| 2026-04-26 06:24 | 32.70162 | -116.88312 | 3880 ft | 185 kts | 191° |
| 2026-04-26 06:24 | 32.69316 | -116.88443 | 3834 ft | 184 kts | 196° |
| 2026-04-26 06:24 | 32.68272 | -116.89202 | 3798 ft | 177 kts | 235° |
| 2026-04-26 06:24 | 32.67879 | -116.90560 | 3805 ft | 176 kts | 262° |
| 2026-04-26 06:25 | 32.67755 | -116.92007 | 3802 ft | 176 kts | 265° |
| 2026-04-26 06:25 | 32.67669 | -116.93457 | 3799 ft | 176 kts | 266° |
| 2026-04-26 06:25 | 32.67590 | -116.94907 | 3799 ft | 176 kts | 266° |
| 2026-04-26 06:25 | 32.67801 | -116.96328 | 3796 ft | 175 kts | 289° |
| 2026-04-26 06:26 | 32.68158 | -116.97629 | 3792 ft | 157 kts | 284° |
| 2026-04-26 06:26 | 32.68454 | -116.98829 | 3807 ft | 148 kts | 283° |
| 2026-04-26 06:26 | 32.68737 | -116.99989 | 3802 ft | 146 kts | 282° |
| 2026-04-26 06:26 | 32.69020 | -117.01148 | 3806 ft | 146 kts | 283° |
| 2026-04-26 06:27 | 32.69309 | -117.02310 | 3654 ft | 146 kts | 284° |
| 2026-04-26 06:27 | 32.69597 | -117.03405 | 4163 ft | 130 kts | 284° |
| 2026-04-26 06:27 | 32.69881 | -117.04428 | 4570 ft | 131 kts | 284° |
| 2026-04-26 06:27 | 32.70193 | -117.05473 | 4659 ft | 142 kts | 286° |
| 2026-04-26 06:28 | 32.70497 | -117.06704 | 4403 ft | 165 kts | 281° |
| 2026-04-26 06:28 | 32.70790 | -117.08049 | 4343 ft | 171 kts | 280° |
| 2026-04-26 06:28 | 32.71030 | -117.09417 | 3915 ft | 172 kts | 279° |
| 2026-04-26 06:28 | 32.71293 | -117.10805 | 3263 ft | 170 kts | 282° |
| 2026-04-26 06:29 | 32.71651 | -117.12144 | 2429 ft | 170 kts | 288° |
| 2026-04-26 06:29 | 32.72019 | -117.13499 | 1478 ft | 175 kts | 286° |
| 2026-04-26 06:29 | 32.72372 | -117.14849 | 753 ft | 169 kts | 283° |
| 2026-04-26 06:29 | 32.72685 | -117.16145 | 374 ft | 156 kts | 283° |
| 2026-04-26 06:30 | 32.72956 | -117.17304 | 193 ft | 139 kts | 283° |
| 2026-04-26 06:30 | 32.73211 | -117.18358 | 46 ft | 123 kts | 285° |
| 2026-04-26 06:30 | 32.73439 | -117.19296 | 54 ft | 129 kts | 287° |
| 2026-04-26 06:30 | 32.73741 | -117.20514 | 660 ft | 173 kts | 286° |
| 2026-04-26 06:31 | 32.74087 | -117.21832 | 1922 ft | 160 kts | 284° |
| 2026-04-26 06:31 | 32.74439 | -117.23139 | 2505 ft | 176 kts | 285° |
| 2026-04-26 06:31 | 32.74803 | -117.24517 | 2529 ft | 173 kts | 285° |
| 2026-04-26 06:31 | 32.75150 | -117.25880 | 2795 ft | 173 kts | 284° |
| 2026-04-26 06:32 | 32.75499 | -117.27254 | 3032 ft | 174 kts | 285° |
| 2026-04-26 06:32 | 32.75869 | -117.28622 | 3357 ft | 175 kts | 292° |
| 2026-04-26 06:32 | 32.76719 | -117.29663 | 3687 ft | 185 kts | 332° |
| 2026-04-26 06:32 | 32.78013 | -117.29810 | 4021 ft | 196 kts | 12° |
| 2026-04-26 06:33 | 32.79163 | -117.28930 | 4357 ft | 204 kts | 49° |
| 2026-04-26 06:33 | 32.79955 | -117.27507 | 4706 ft | 208 kts | 59° |
| 2026-04-26 06:33 | 32.80663 | -117.25986 | 4971 ft | 213 kts | 60° |
| 2026-04-26 06:33 | 32.81341 | -117.24460 | 5004 ft | 211 kts | 61° |
| 2026-04-26 06:34 | 32.82023 | -117.22918 | 5011 ft | 210 kts | 61° |
| 2026-04-26 06:34 | 32.82701 | -117.21384 | 5010 ft | 210 kts | 61° |
| 2026-04-26 06:34 | 32.83380 | -117.19848 | 5013 ft | 209 kts | 60° |
| 2026-04-26 06:34 | 32.84039 | -117.18306 | 5000 ft | 210 kts | 67° |
| 2026-04-26 06:35 | 32.84200 | -117.16608 | 5002 ft | 208 kts | 102° |
| 2026-04-26 06:35 | 32.83858 | -117.14954 | 5008 ft | 208 kts | 109° |
| 2026-04-26 06:35 | 32.83428 | -117.13308 | 5001 ft | 208 kts | 110° |
| 2026-04-26 06:35 | 32.82981 | -117.11677 | 5001 ft | 208 kts | 111° |
| 2026-04-26 06:36 | 32.82533 | -117.10039 | 4998 ft | 208 kts | 111° |
| 2026-04-26 06:36 | 32.82093 | -117.08406 | 5002 ft | 208 kts | 111° |
| 2026-04-26 06:36 | 32.81651 | -117.06762 | 4996 ft | 208 kts | 111° |
| 2026-04-26 06:36 | 32.81210 | -117.05118 | 4989 ft | 208 kts | 111° |
| 2026-04-26 06:37 | 32.80768 | -117.03482 | 4989 ft | 208 kts | 111° |
| 2026-04-26 06:37 | 32.80326 | -117.01846 | 4991 ft | 208 kts | 111° |
| 2026-04-26 06:37 | 32.79883 | -117.00210 | 4991 ft | 208 kts | 111° |
| 2026-04-26 06:37 | 32.79437 | -116.98567 | 4992 ft | 208 kts | 110° |
| 2026-04-26 06:38 | 32.78992 | -116.96928 | 4996 ft | 209 kts | 111° |
| 2026-04-26 06:38 | 32.78553 | -116.95310 | 4990 ft | 208 kts | 111° |
| 2026-04-26 06:38 | 32.78111 | -116.93667 | 4992 ft | 209 kts | 111° |
| 2026-04-26 06:38 | 32.77666 | -116.92015 | 4994 ft | 210 kts | 110° |
| 2026-04-26 06:39 | 32.77216 | -116.90364 | 4993 ft | 209 kts | 110° |
| 2026-04-26 06:39 | 32.76692 | -116.88770 | 4985 ft | 205 kts | 128° |
| 2026-04-26 06:39 | 32.75633 | -116.87764 | 4976 ft | 191 kts | 167° |
| 2026-04-26 06:39 | 32.74368 | -116.87662 | 4772 ft | 180 kts | 191° |
| 2026-04-26 06:40 | 32.73130 | -116.87890 | 4385 ft | 180 kts | 195° |
| 2026-04-26 06:40 | 32.71897 | -116.88163 | 4017 ft | 180 kts | 195° |
| 2026-04-26 06:40 | 32.70672 | -116.88450 | 3768 ft | 178 kts | 195° |
| 2026-04-26 06:40 | 32.69448 | -116.88785 | 3780 ft | 180 kts | 203° |
| 2026-04-26 06:41 | 32.68365 | -116.89507 | 3790 ft | 178 kts | 222° |
| 2026-04-26 06:41 | 32.67579 | -116.90596 | 3797 ft | 176 kts | 241° |
| 2026-04-26 06:41 | 32.67152 | -116.91945 | 3797 ft | 175 kts | 259° |
| 2026-04-26 06:41 | 32.67141 | -116.93380 | 3799 ft | 175 kts | 278° |
| 2026-04-26 06:42 | 32.67461 | -116.94779 | 3800 ft | 176 kts | 284° |
| 2026-04-26 06:42 | 32.67802 | -116.96166 | 3742 ft | 175 kts | 284° |
| 2026-04-26 06:42 | 32.68143 | -116.97559 | 3632 ft | 176 kts | 284° |
| 2026-04-26 06:42 | 32.68483 | -116.98951 | 3547 ft | 176 kts | 283° |
| 2026-04-26 06:43 | 32.68823 | -117.00343 | 3448 ft | 176 kts | 283° |
| 2026-04-26 06:43 | 32.69164 | -117.01736 | 3345 ft | 176 kts | 283° |
| 2026-04-26 06:43 | 32.69504 | -117.03130 | 3248 ft | 176 kts | 283° |
| 2026-04-26 06:43 | 32.69844 | -117.04523 | 3142 ft | 176 kts | 283° |
| 2026-04-26 06:44 | 32.70181 | -117.05918 | 2966 ft | 176 kts | 283° |
| 2026-04-26 06:44 | 32.70515 | -117.07310 | 2587 ft | 175 kts | 283° |
| 2026-04-26 06:44 | 32.70829 | -117.08656 | 2194 ft | 162 kts | 283° |
| 2026-04-26 06:44 | 32.71130 | -117.09892 | 1889 ft | 148 kts | 285° |
| 2026-04-26 06:45 | 32.71435 | -117.11020 | 1462 ft | 144 kts | 285° |
| 2026-04-26 06:45 | 32.71696 | -117.12135 | 1236 ft | 140 kts | 283° |
| 2026-04-26 06:45 | 32.71965 | -117.13237 | 1059 ft | 140 kts | 285° |
| 2026-04-26 06:45 | 32.72229 | -117.14358 | 852 ft | 140 kts | 284° |
| 2026-04-26 06:46 | 32.72510 | -117.15479 | 694 ft | 141 kts | 285° |
| 2026-04-26 06:46 | 32.72779 | -117.16601 | 397 ft | 141 kts | 285° |
| 2026-04-26 06:46 | 32.73052 | -117.17710 | 109 ft | 139 kts | 284° |
| 2026-04-26 06:46 | 32.73307 | -117.18792 | 33 ft | 127 kts | 291° |
| 2026-04-26 06:47 | 32.73492 | -117.19534 | 27 ft | 51 kts | 286° |
| 2026-04-26 06:47 | 32.73522 | -117.19787 | 29 ft | 29 kts | 244° |
| 2026-04-26 06:47 | 32.73474 | -117.19838 | 28 ft | 0 kts | 156° |
| 2026-04-26 06:48 | 32.73471 | -117.19836 | 28 ft | 3 kts | 158° |
| 2026-04-26 06:49 | 32.73432 | -117.19857 | 27 ft | 9 kts | 209° |
| 2026-04-26 06:49 | 32.73398 | -117.19857 | 31 ft | 5 kts | 161° |
| 2026-04-26 06:49 | 32.73381 | -117.19855 | 30 ft | 0 kts | 178° |
| 2026-04-26 06:49 | 32.73374 | -117.19855 | 31 ft | 0 kts | 180° |